createdAt,value
2022-08-22T00:00:23.269Z,19.98
2022-08-22T00:06:16.954Z,19.89
2022-08-22T00:09:10.463Z,19.85
2022-08-22T00:11:48.397Z,19.78
2022-08-22T00:14:38.412Z,19.78
2022-08-22T00:17:30.094Z,19.71
2022-08-22T00:20:20.116Z,19.71
2022-08-22T00:23:05.888Z,19.68
2022-08-22T00:25:55.322Z,19.67
2022-08-22T00:28:49.197Z,19.67
2022-08-22T00:31:29.164Z,19.66
2022-08-22T00:34:07.639Z,19.57
2022-08-22T00:37:00.249Z,19.56
2022-08-22T00:39:26.980Z,19.56
2022-08-22T00:42:12.798Z,19.49
2022-08-22T00:44:54.545Z,19.50
2022-08-22T00:47:40.044Z,19.50
2022-08-22T00:50:27.619Z,19.47
2022-08-22T00:53:17.850Z,19.47
2022-08-22T00:56:01.340Z,19.56
2022-08-22T00:58:33.948Z,19.54
2022-08-22T01:01:07.260Z,19.49
2022-08-22T01:03:52.628Z,19.50
2022-08-22T01:06:25.276Z,19.46
2022-08-22T01:09:04.310Z,19.50
2022-08-22T01:11:38.525Z,19.45
2022-08-22T01:14:34.622Z,19.41
2022-08-22T01:17:21.105Z,19.45
2022-08-22T01:19:50.524Z,19.43
2022-08-22T01:22:48.623Z,19.34
2022-08-22T01:25:33.936Z,19.34
2022-08-22T01:28:19.146Z,19.31
2022-08-22T01:31:22.335Z,19.33
2022-08-22T01:34:06.823Z,19.27
2022-08-22T01:37:02.164Z,19.26
2022-08-22T01:39:34.703Z,19.29
2022-08-22T01:42:10.954Z,19.26
2022-08-22T01:44:40.278Z,19.22
2022-08-22T01:47:26.935Z,19.27
2022-08-22T01:50:32.567Z,19.18
2022-08-22T01:53:14.807Z,19.19
2022-08-22T01:55:52.440Z,19.15
2022-08-22T01:58:27.065Z,19.19
2022-08-22T02:01:20.288Z,19.16
2022-08-22T02:04:03.792Z,19.13
2022-08-22T02:06:39.910Z,19.06
2022-08-22T02:09:38.693Z,19.08
2022-08-22T02:12:17.210Z,19.03
2022-08-22T02:15:14.799Z,18.98
2022-08-22T02:18:05.186Z,18.94
2022-08-22T02:20:54.087Z,18.88
2022-08-22T02:23:35.727Z,18.88
2022-08-22T02:26:02.272Z,18.82
2022-08-22T02:29:01.198Z,18.82
2022-08-22T02:31:46.427Z,18.84
2022-08-22T02:34:19.167Z,18.84
2022-08-22T02:36:58.231Z,18.87
2022-08-22T02:39:33.593Z,18.84
2022-08-22T02:42:26.830Z,18.91
2022-08-22T02:45:19.762Z,18.84
2022-08-22T02:48:41.023Z,18.87
2022-08-22T02:51:26.010Z,18.84
2022-08-22T02:54:10.687Z,18.87
2022-08-22T02:56:54.564Z,18.78
2022-08-22T02:59:27.339Z,18.79
2022-08-22T03:01:55.784Z,18.82
2022-08-22T03:04:22.385Z,18.78
2022-08-22T03:07:32.778Z,18.78
2022-08-22T03:10:27.739Z,18.79
2022-08-22T03:13:03.453Z,18.76
2022-08-22T03:15:49.792Z,18.78
2022-08-22T03:18:28.500Z,18.71
2022-08-22T03:21:15.284Z,18.67
2022-08-22T03:24:01.607Z,18.71
2022-08-22T03:26:38.784Z,18.65
2022-08-22T03:29:15.507Z,18.62
2022-08-22T03:32:07.716Z,18.67
2022-08-22T03:34:35.730Z,18.71
2022-08-22T03:37:38.110Z,18.78
2022-08-22T03:40:20.060Z,18.71
2022-08-22T03:42:46.701Z,18.72
2022-08-22T03:45:32.069Z,18.68
2022-08-22T03:48:23.840Z,18.68
2022-08-22T03:51:21.056Z,18.61
2022-08-22T03:53:53.532Z,18.60
2022-08-22T03:57:00.581Z,18.58
2022-08-22T03:59:48.335Z,18.67
2022-08-22T04:02:43.541Z,18.67
2022-08-22T04:05:54.967Z,18.55
2022-08-22T04:08:37.738Z,18.55
2022-08-22T04:11:36.209Z,18.58
2022-08-22T04:14:17.153Z,18.60
2022-08-22T04:16:43.791Z,18.50
2022-08-22T04:19:38.765Z,18.52
2022-08-22T04:22:47.642Z,18.55
2022-08-22T04:25:31.066Z,18.55
2022-08-22T04:28:22.288Z,18.51
2022-08-22T04:30:55.856Z,18.51
2022-08-22T04:33:32.162Z,18.55
2022-08-22T04:36:21.392Z,18.43
2022-08-22T04:38:53.853Z,18.43
2022-08-22T04:41:24.884Z,18.48
2022-08-22T04:44:15.642Z,18.41
2022-08-22T04:46:49.602Z,18.44
2022-08-22T04:49:32.004Z,18.41
2022-08-22T04:52:29.865Z,18.50
2022-08-22T04:55:24.811Z,18.50
2022-08-22T04:58:02.238Z,18.48
2022-08-22T05:00:41.930Z,18.55
2022-08-22T05:03:14.683Z,18.58
2022-08-22T05:05:44.124Z,18.51
2022-08-22T05:08:15.031Z,18.54
2022-08-22T05:10:46.553Z,18.50
2022-08-22T05:13:21.665Z,18.45
2022-08-22T05:15:52.013Z,18.48
2022-08-22T05:18:29.576Z,18.54
2022-08-22T05:21:04.238Z,18.47
2022-08-22T05:23:39.598Z,18.61
2022-08-22T05:26:07.600Z,18.55
2022-08-22T05:28:56.495Z,18.60
2022-08-22T05:31:36.880Z,18.67
2022-08-22T05:34:09.674Z,18.79
2022-08-22T05:36:44.368Z,18.73
2022-08-22T05:39:25.417Z,18.62
2022-08-22T05:41:56.893Z,18.54
2022-08-22T05:44:27.264Z,18.69
2022-08-22T05:47:21.496Z,18.82
2022-08-22T05:50:07.193Z,19.02
2022-08-22T05:52:48.994Z,19.03
2022-08-22T05:55:25.666Z,19.03
2022-08-22T05:58:24.572Z,19.33
2022-08-22T06:00:59.200Z,19.36
2022-08-22T06:03:38.030Z,19.23
2022-08-22T06:06:13.770Z,19.31
2022-08-22T06:08:47.620Z,19.53
2022-08-22T06:11:37.838Z,19.41
2022-08-22T06:14:39.870Z,19.33
2022-08-22T06:17:21.826Z,19.41
2022-08-22T06:19:51.385Z,19.60
2022-08-22T06:22:43.773Z,19.54
2022-08-22T06:25:24.749Z,19.60
2022-08-22T06:27:52.938Z,19.47
2022-08-22T06:30:21.330Z,19.43
2022-08-22T06:32:59.753Z,19.41
2022-08-22T06:35:56.325Z,19.39
2022-08-22T06:38:34.894Z,19.41
2022-08-22T06:41:07.081Z,19.63
2022-08-22T06:43:39.328Z,19.46
2022-08-22T06:46:07.503Z,19.54
2022-08-22T06:48:35.900Z,19.67
2022-08-22T06:51:06.415Z,19.64
2022-08-22T06:53:47.754Z,19.79
2022-08-22T06:56:23.335Z,19.94
2022-08-22T06:58:56.192Z,19.94
2022-08-22T07:01:35.623Z,20.09
2022-08-22T07:04:09.130Z,20.09
2022-08-22T07:06:45.098Z,20.29
2022-08-22T07:09:23.652Z,20.35
2022-08-22T07:11:52.369Z,20.39
2022-08-22T07:14:29.772Z,20.25
2022-08-22T07:16:59.808Z,20.16
2022-08-22T07:19:42.064Z,20.35
2022-08-22T07:22:15.723Z,20.47
2022-08-22T07:24:50.590Z,20.90
2022-08-22T07:27:38.434Z,20.83
2022-08-22T07:30:09.977Z,21.05
2022-08-22T07:32:54.061Z,20.87
2022-08-22T07:35:25.751Z,21.03
2022-08-22T07:38:10.468Z,21.03
2022-08-22T07:41:01.567Z,21.17
2022-08-22T07:43:33.732Z,21.11
2022-08-22T07:46:28.527Z,21.18
2022-08-22T07:49:10.020Z,21.53
2022-08-22T07:51:51.294Z,21.86
2022-08-22T07:54:28.786Z,22.51
2022-08-22T07:57:07.361Z,22.51
2022-08-22T07:59:48.650Z,22.47
2022-08-22T08:02:17.714Z,22.37
2022-08-22T08:04:45.852Z,22.84
2022-08-22T08:07:16.108Z,23.78
2022-08-22T08:10:14.336Z,23.51
2022-08-22T08:13:01.848Z,23.73
2022-08-22T08:15:32.604Z,23.36
2022-08-22T08:18:05.494Z,23.91
2022-08-22T08:20:35.692Z,23.70
2022-08-22T08:23:08.830Z,23.37
2022-08-22T08:25:53.424Z,23.85
2022-08-22T08:28:38.063Z,23.40
2022-08-22T08:31:14.998Z,23.47
2022-08-22T08:33:45.035Z,23.23
2022-08-22T08:36:23.865Z,23.05
2022-08-22T08:39:01.644Z,22.98
2022-08-22T08:41:38.324Z,23.06
2022-08-22T08:44:17.914Z,22.98
2022-08-22T08:47:12.486Z,23.23
2022-08-22T08:49:57.490Z,23.16
2022-08-22T08:52:52.245Z,23.03
2022-08-22T08:55:44.002Z,23.26
2022-08-22T08:58:34.372Z,23.40
2022-08-22T09:01:28.704Z,23.16
2022-08-22T09:04:15.586Z,23.50
2022-08-22T09:07:06.127Z,23.51
2022-08-22T09:09:52.330Z,23.53
2022-08-22T09:12:54.417Z,23.53
2022-08-22T09:15:42.878Z,23.79
2022-08-22T09:18:41.959Z,23.85
2022-08-22T09:21:45.472Z,24.30
2022-08-22T09:24:41.334Z,24.76
2022-08-22T09:27:33.049Z,25.08
2022-08-22T09:30:31.479Z,25.96
2022-08-22T09:33:16.291Z,25.62
2022-08-22T09:36:05.198Z,25.49
2022-08-22T09:38:35.332Z,25.69
2022-08-22T09:41:14.476Z,25.12
2022-08-22T09:43:52.171Z,24.73
2022-08-22T09:46:31.556Z,24.42
2022-08-22T09:49:06.870Z,24.64
2022-08-22T09:51:51.071Z,24.52
2022-08-22T09:54:41.612Z,24.52
2022-08-22T09:57:22.714Z,24.67
2022-08-22T10:00:02.069Z,24.74
2022-08-22T10:02:43.637Z,24.81
2022-08-22T10:05:13.300Z,24.73
2022-08-22T10:08:27.996Z,24.79
2022-08-22T10:11:07.262Z,24.49
2022-08-22T10:13:57.882Z,24.53
2022-08-22T10:16:52.780Z,24.56
2022-08-22T10:19:44.537Z,24.94
2022-08-22T10:22:20.466Z,25.29
2022-08-22T10:24:53.866Z,25.63
2022-08-22T10:28:01.386Z,26.92
2022-08-22T10:31:17.793Z,26.78
2022-08-22T10:34:03.127Z,28.53
2022-08-22T10:36:33.276Z,28.83
2022-08-22T10:39:11.006Z,28.37
2022-08-22T10:41:38.659Z,28.53
2022-08-22T10:44:15.486Z,28.37
2022-08-22T10:46:54.321Z,28.15
2022-08-22T10:49:40.136Z,27.82
2022-08-22T10:52:31.948Z,27.57
2022-08-22T10:55:11.094Z,26.88
2022-08-22T10:58:00.602Z,26.73
2022-08-22T11:00:50.355Z,26.69
2022-08-22T11:03:21.906Z,27.26
2022-08-22T11:05:53.056Z,27.85
2022-08-22T11:09:00.489Z,29.29
2022-08-22T11:11:44.515Z,29.15
2022-08-22T11:14:26.847Z,30.27
2022-08-22T11:17:40.611Z,31.06
2022-08-22T11:20:19.858Z,31.29
2022-08-22T11:22:50.946Z,31.47
2022-08-22T11:25:53.754Z,29.45
2022-08-22T11:28:41.527Z,31.67
2022-08-22T11:31:27.666Z,32.12
2022-08-22T11:34:24.430Z,32.32
2022-08-22T11:37:15.617Z,31.43
2022-08-22T11:40:03.966Z,30.69
2022-08-22T11:42:49.271Z,30.68
2022-08-22T11:45:23.657Z,29.73
2022-08-22T11:48:02.610Z,28.94
2022-08-22T11:50:45.529Z,28.31
2022-08-22T11:53:34.181Z,29.52
2022-08-22T11:56:23.233Z,29.53
2022-08-22T11:59:07.373Z,29.73
2022-08-22T12:01:52.847Z,30.11
2022-08-22T12:04:33.890Z,30.01
2022-08-22T12:07:16.055Z,30.04
2022-08-22T12:09:50.782Z,28.83
2022-08-22T12:12:26.399Z,30.54
2022-08-22T12:15:11.339Z,30.00
2022-08-22T12:18:01.438Z,29.65
2022-08-22T12:21:25.721Z,29.83
2022-08-22T12:24:19.028Z,29.29
2022-08-22T12:26:53.226Z,29.65
2022-08-22T12:29:45.228Z,29.84
2022-08-22T12:32:35.744Z,29.41
2022-08-22T12:35:20.725Z,28.84
2022-08-22T12:38:29.122Z,28.97
2022-08-22T12:41:11.922Z,28.76
2022-08-22T12:43:49.465Z,28.93
2022-08-22T12:46:28.863Z,28.78
2022-08-22T12:49:33.959Z,28.63
2022-08-22T12:52:09.636Z,28.61
2022-08-22T12:55:12.197Z,28.71
2022-08-22T12:57:50.440Z,29.38
2022-08-22T13:00:26.692Z,29.99
2022-08-22T13:03:00.439Z,29.67
2022-08-22T13:05:31.399Z,29.29
2022-08-22T13:08:14.036Z,29.52
2022-08-22T13:10:52.725Z,29.28
2022-08-22T13:13:37.298Z,29.72
2022-08-22T13:16:13.039Z,29.22
2022-08-22T13:18:55.217Z,29.12
2022-08-22T13:21:34.864Z,29.80
2022-08-22T13:24:16.805Z,30.11
2022-08-22T13:26:52.127Z,29.42
2022-08-22T13:29:39.556Z,29.11
2022-08-22T13:32:23.635Z,29.29
2022-08-22T13:34:56.144Z,29.65
2022-08-22T13:37:30.052Z,29.52
2022-08-22T13:40:02.379Z,29.05
2022-08-22T13:42:32.308Z,28.98
2022-08-22T13:45:05.323Z,28.78
2022-08-22T13:47:35.872Z,29.07
2022-08-22T13:50:21.329Z,29.04
2022-08-22T13:52:56.236Z,29.42
2022-08-22T13:55:55.016Z,28.87
2022-08-22T13:58:35.040Z,29.56
2022-08-22T14:01:25.606Z,29.46
2022-08-22T14:04:28.676Z,29.49
2022-08-22T14:07:04.466Z,29.53
2022-08-22T14:09:45.263Z,28.95
2022-08-22T14:12:33.313Z,28.74
2022-08-22T14:15:10.834Z,29.36
2022-08-22T14:17:43.269Z,30.21
2022-08-22T14:20:43.898Z,31.53
2022-08-22T14:23:18.588Z,31.75
2022-08-22T14:25:45.696Z,31.26
2022-08-22T14:28:22.040Z,31.16
2022-08-22T14:31:13.437Z,31.33
2022-08-22T14:34:02.359Z,31.67
2022-08-22T14:36:48.760Z,31.34
2022-08-22T14:39:59.595Z,31.22
2022-08-22T14:42:44.405Z,30.68
2022-08-22T14:45:17.862Z,30.59
2022-08-22T14:48:29.630Z,30.86
2022-08-22T14:50:57.344Z,31.07
2022-08-22T14:53:30.637Z,31.38
2022-08-22T14:56:18.135Z,31.37
2022-08-22T14:58:47.910Z,29.67
2022-08-22T15:01:19.703Z,29.10
2022-08-22T15:04:00.724Z,28.95
2022-08-22T15:06:36.076Z,28.93
2022-08-22T15:09:09.269Z,28.45
2022-08-22T15:11:36.731Z,28.33
2022-08-22T15:14:12.787Z,27.76
2022-08-22T15:17:01.054Z,27.82
2022-08-22T15:19:45.870Z,27.92
2022-08-22T15:22:18.969Z,27.95
2022-08-22T15:25:08.511Z,27.84
2022-08-22T15:27:48.978Z,28.15
2022-08-22T15:30:20.498Z,27.97
2022-08-22T15:32:49.154Z,27.87
2022-08-22T15:35:31.611Z,27.65
2022-08-22T15:38:02.281Z,27.29
2022-08-22T15:40:31.745Z,27.10
2022-08-22T15:43:13.050Z,27.09
2022-08-22T15:45:42.283Z,27.26
2022-08-22T15:48:31.037Z,27.10
2022-08-22T15:51:01.746Z,27.43
2022-08-22T15:53:59.710Z,27.58
2022-08-22T15:56:29.490Z,27.58
2022-08-22T15:59:48.221Z,27.61
2022-08-22T16:02:35.209Z,27.33
2022-08-22T16:05:11.342Z,27.24
2022-08-22T16:07:42.803Z,26.62
2022-08-22T16:10:25.883Z,26.96
2022-08-22T16:13:15.801Z,26.72
2022-08-22T16:15:52.635Z,26.88
2022-08-22T16:18:34.651Z,26.83
2022-08-22T16:21:03.378Z,26.79
2022-08-22T16:23:49.969Z,26.96
2022-08-22T16:26:29.573Z,27.19
2022-08-22T16:28:59.372Z,27.27
2022-08-22T16:31:44.160Z,27.34
2022-08-22T16:34:16.724Z,27.31
2022-08-22T16:36:46.061Z,27.16
2022-08-22T16:39:22.066Z,27.20
2022-08-22T16:42:22.249Z,27.13
2022-08-22T16:44:57.987Z,27.03
2022-08-22T16:47:30.953Z,26.96
2022-08-22T16:50:04.287Z,27.00
2022-08-22T16:52:31.933Z,27.02
2022-08-22T16:55:03.237Z,27.02
2022-08-22T16:58:05.362Z,26.96
2022-08-22T17:00:49.802Z,27.02
2022-08-22T17:03:42.597Z,26.79
2022-08-22T17:06:38.513Z,26.65
2022-08-22T17:09:17.508Z,26.54
2022-08-22T17:12:05.855Z,26.58
2022-08-22T17:14:47.481Z,26.48
2022-08-22T17:17:17.162Z,26.34
2022-08-22T17:19:49.560Z,26.41
2022-08-22T17:22:29.038Z,26.45
2022-08-22T17:25:14.018Z,26.52
2022-08-22T17:27:44.869Z,26.49
2022-08-22T17:30:36.883Z,26.34
2022-08-22T17:33:12.387Z,26.30
2022-08-22T17:36:26.407Z,26.20
2022-08-22T17:39:15.333Z,26.23
2022-08-22T17:41:53.850Z,26.13
2022-08-22T17:44:42.144Z,26.06
2022-08-22T17:47:16.208Z,26.04
2022-08-22T17:49:42.757Z,26.04
2022-08-22T17:52:28.518Z,25.85
2022-08-22T17:55:05.443Z,25.75
2022-08-22T17:57:32.069Z,25.70
2022-08-22T18:00:14.395Z,25.67
2022-08-22T18:02:50.022Z,25.61
2022-08-22T18:05:24.945Z,25.52
2022-08-22T18:08:37.584Z,25.45
2022-08-22T18:11:08.876Z,25.37
2022-08-22T18:13:53.780Z,25.25
2022-08-22T18:16:20.504Z,25.19
2022-08-22T18:19:03.342Z,25.19
2022-08-22T18:21:35.409Z,25.17
2022-08-22T18:24:14.300Z,25.21
2022-08-22T18:27:30.045Z,25.15
2022-08-22T18:30:05.695Z,25.25
2022-08-22T18:32:52.563Z,25.14
2022-08-22T18:35:49.794Z,24.95
2022-08-22T18:38:30.028Z,24.81
2022-08-22T18:41:14.907Z,24.90
2022-08-22T18:43:48.307Z,24.81
2022-08-22T18:46:40.114Z,24.73
2022-08-22T18:49:19.772Z,24.70
2022-08-22T18:52:17.367Z,24.71
2022-08-22T18:55:15.059Z,24.59
2022-08-22T18:58:06.811Z,24.56
2022-08-22T19:00:46.328Z,24.52
2022-08-22T19:03:45.187Z,24.52
2022-08-22T19:06:28.359Z,24.43
2022-08-22T19:09:12.837Z,24.39
2022-08-22T19:12:02.783Z,24.30
2022-08-22T19:14:40.666Z,24.32
2022-08-22T19:17:28.691Z,24.22
2022-08-22T19:20:25.675Z,24.30
2022-08-22T19:23:32.691Z,24.16
2022-08-22T19:26:21.739Z,24.15
2022-08-22T19:28:49.371Z,24.11
2022-08-22T19:31:41.801Z,24.04
2022-08-22T19:34:29.493Z,23.97
2022-08-22T19:37:32.231Z,23.94
2022-08-22T19:40:09.887Z,23.85
2022-08-22T19:42:38.999Z,23.82
2022-08-22T19:45:18.525Z,23.82
2022-08-22T19:47:54.789Z,23.86
2022-08-22T19:50:21.340Z,23.92
2022-08-22T19:52:57.630Z,23.94
2022-08-22T19:55:39.206Z,23.92
2022-08-22T19:58:40.980Z,24.00
2022-08-22T20:01:35.199Z,23.98
2022-08-22T20:04:31.472Z,24.02
2022-08-22T20:07:43.210Z,24.05
2022-08-22T20:10:42.706Z,24.06
2022-08-22T20:13:19.573Z,24.02
2022-08-22T20:16:07.410Z,24.04
2022-08-22T20:19:06.980Z,23.98
2022-08-22T20:21:58.611Z,24.01
2022-08-22T20:24:59.759Z,24.01
2022-08-22T20:27:26.304Z,24.01
2022-08-22T20:30:12.198Z,24.02
2022-08-22T20:32:41.733Z,24.01
2022-08-22T20:35:16.963Z,23.98
2022-08-22T20:38:06.283Z,23.97
2022-08-22T20:40:55.679Z,23.94
2022-08-22T20:43:35.420Z,23.84
2022-08-22T20:46:24.019Z,23.82
2022-08-22T20:48:54.085Z,23.73
2022-08-22T20:51:25.064Z,23.60
2022-08-22T20:54:10.136Z,23.49
2022-08-22T20:56:53.198Z,23.42
2022-08-22T20:59:27.511Z,23.39
2022-08-22T21:02:15.158Z,23.30
2022-08-22T21:04:48.667Z,23.28
2022-08-22T21:07:41.391Z,23.22
2022-08-22T21:10:41.233Z,23.16
2022-08-22T21:13:14.118Z,23.13
2022-08-22T21:15:46.477Z,23.26
2022-08-22T21:18:24.003Z,23.17
2022-08-22T21:20:51.532Z,23.19
2022-08-22T21:23:19.524Z,23.19
2022-08-22T21:25:58.657Z,23.23
2022-08-22T21:28:35.057Z,23.23
2022-08-22T21:31:15.883Z,23.20
2022-08-22T21:33:45.249Z,23.22
2022-08-22T21:36:15.061Z,23.17
2022-08-22T21:38:48.907Z,23.10
2022-08-22T21:41:28.524Z,23.09
2022-08-22T21:43:55.477Z,23.09
2022-08-22T21:46:28.646Z,23.06
2022-08-22T21:49:04.841Z,23.02
2022-08-22T21:51:39.711Z,22.98
2022-08-22T21:54:22.061Z,22.94
2022-08-22T21:56:49.655Z,22.88
2022-08-22T21:59:50.981Z,22.88
2022-08-22T22:02:36.664Z,22.94
2022-08-22T22:05:16.293Z,23.03
2022-08-22T22:07:45.919Z,23.09
2022-08-22T22:10:17.204Z,23.07
2022-08-22T22:12:45.667Z,23.06
2022-08-22T22:15:16.530Z,23.13
2022-08-22T22:17:43.642Z,23.17
2022-08-22T22:20:12.012Z,23.17
2022-08-22T22:22:45.971Z,23.17
2022-08-22T22:25:40.573Z,23.24
2022-08-22T22:28:11.391Z,23.20
2022-08-22T22:30:38.263Z,23.19
2022-08-22T22:33:04.899Z,23.19
2022-08-22T22:35:32.412Z,23.16
2022-08-22T22:37:59.212Z,23.07
2022-08-22T22:40:27.150Z,23.00
2022-08-22T22:42:53.797Z,23.00
2022-08-22T22:45:20.379Z,23.00
2022-08-22T22:47:46.989Z,23.00
2022-08-22T22:50:13.780Z,23.00
2022-08-22T22:52:40.805Z,22.99
2022-08-22T22:55:09.071Z,22.99
2022-08-22T22:57:42.698Z,22.95
2022-08-22T23:00:11.958Z,22.88
2022-08-22T23:02:39.146Z,22.85
2022-08-22T23:05:07.175Z,22.85
2022-08-22T23:07:34.040Z,22.82
2022-08-22T23:10:01.468Z,22.81
2022-08-22T23:12:28.920Z,22.81
2022-08-22T23:14:55.682Z,22.84
2022-08-22T23:17:22.315Z,22.78
2022-08-22T23:19:51.082Z,22.76
2022-08-22T23:22:17.927Z,22.75
2022-08-22T23:24:44.831Z,22.72
2022-08-22T23:27:12.140Z,22.73
2022-08-22T23:29:43.555Z,22.71
2022-08-22T23:32:11.527Z,22.61
2022-08-22T23:34:44.095Z,22.54
2022-08-22T23:37:11.206Z,22.57
2022-08-22T23:39:40.671Z,22.59
2022-08-22T23:42:08.776Z,22.55
2022-08-22T23:44:37.349Z,22.59
2022-08-22T23:47:06.253Z,22.64
2022-08-22T23:49:33.691Z,22.61
2022-08-22T23:52:00.333Z,22.64
2022-08-22T23:54:27.019Z,22.61
2022-08-22T23:56:56.211Z,22.62
2022-08-22T23:59:30.066Z,22.67
